createdAt,value
2022-09-04T00:01:43.119Z,4.55
2022-09-04T00:04:25.371Z,4.55
2022-09-04T00:07:04.743Z,4.50
2022-09-04T00:09:40.311Z,4.57
2022-09-04T00:12:10.015Z,3.88
2022-09-04T00:14:44.943Z,4.18
2022-09-04T00:17:20.182Z,4.15
2022-09-04T00:19:56.397Z,4.38
2022-09-04T00:22:47.184Z,4.40
2022-09-04T00:25:20.169Z,3.75
2022-09-04T00:27:53.365Z,4.03
2022-09-04T00:30:24.518Z,4.00
2022-09-04T00:33:00.504Z,4.90
2022-09-04T00:35:31.962Z,4.88
2022-09-04T00:38:04.158Z,4.50
2022-09-04T00:40:42.152Z,5.10
2022-09-04T00:43:36.185Z,4.85
2022-09-04T00:46:38.223Z,4.68
2022-09-04T00:49:38.656Z,4.70
2022-09-04T00:52:19.583Z,5.10
2022-09-04T00:55:01.276Z,4.75
2022-09-04T00:58:01.044Z,5.18
2022-09-04T01:04:33.256Z,5.20
2022-09-04T01:07:18.045Z,4.97
2022-09-04T01:10:09.532Z,4.97
2022-09-04T01:12:43.764Z,4.97
2022-09-04T01:15:17.618Z,4.65
2022-09-04T01:17:58.669Z,5.15
2022-09-04T01:20:39.089Z,5.20
2022-09-04T01:23:26.263Z,4.70
2022-09-04T01:26:10.428Z,5.07
2022-09-04T01:28:49.261Z,5.00
2022-09-04T01:31:27.813Z,4.32
2022-09-04T01:34:04.187Z,4.88
2022-09-04T01:36:38.333Z,4.53
2022-09-04T01:39:06.495Z,4.32
2022-09-04T01:41:40.989Z,4.70
2022-09-04T01:44:11.159Z,4.60
2022-09-04T01:46:51.369Z,4.80
2022-09-04T01:49:32.184Z,4.40
2022-09-04T01:52:11.251Z,4.53
2022-09-04T01:54:51.929Z,4.38
2022-09-04T01:57:35.822Z,4.53
2022-09-04T02:00:10.024Z,4.60
2022-09-04T02:03:02.391Z,4.43
2022-09-04T02:05:48.409Z,4.70
2022-09-04T02:08:33.440Z,4.93
2022-09-04T02:11:06.197Z,5.00
2022-09-04T02:13:45.511Z,4.97
2022-09-04T02:16:20.168Z,4.68
2022-09-04T02:18:56.635Z,5.10
2022-09-04T02:21:32.910Z,5.05
2022-09-04T02:24:10.068Z,4.82
2022-09-04T02:26:43.467Z,5.03
2022-09-04T02:29:21.819Z,5.07
2022-09-04T02:31:59.955Z,4.53
2022-09-04T02:34:43.707Z,4.88
2022-09-04T02:37:21.762Z,5.07
2022-09-04T02:40:01.939Z,5.43
2022-09-04T02:42:40.536Z,4.93
2022-09-04T02:45:24.179Z,5.20
2022-09-04T02:48:01.682Z,5.03
2022-09-04T02:50:49.940Z,4.85
2022-09-04T02:53:27.554Z,4.97
2022-09-04T02:56:09.620Z,4.95
2022-09-04T02:58:51.309Z,4.60
2022-09-04T03:01:30.166Z,5.00
2022-09-04T03:04:07.039Z,4.90
2022-09-04T03:06:51.815Z,4.40
2022-09-04T03:09:25.403Z,4.25
2022-09-04T03:11:59.117Z,4.40
2022-09-04T03:14:34.664Z,5.10
2022-09-04T03:17:12.269Z,5.22
2022-09-04T03:19:48.500Z,4.72
2022-09-04T03:22:23.281Z,4.63
2022-09-04T03:25:51.985Z,4.88
2022-09-04T03:28:33.233Z,5.45
2022-09-04T03:31:07.778Z,4.70
2022-09-04T03:33:45.291Z,5.05
2022-09-04T03:36:23.091Z,5.43
2022-09-04T03:39:02.551Z,5.05
2022-09-04T03:41:42.449Z,5.20
2022-09-04T03:44:23.954Z,5.32
2022-09-04T03:47:00.795Z,4.72
2022-09-04T03:49:44.659Z,4.63
2022-09-04T03:52:23.462Z,5.07
2022-09-04T03:55:08.015Z,4.72
2022-09-04T03:58:01.231Z,4.72
2022-09-04T04:00:41.703Z,4.78
2022-09-04T04:03:42.301Z,4.78
2022-09-04T04:06:23.434Z,4.65
2022-09-04T04:09:35.854Z,5.72
2022-09-04T04:12:27.544Z,5.10
2022-09-04T04:15:50.533Z,5.25
2022-09-04T04:18:40.965Z,4.85
2022-09-04T04:21:23.775Z,6.10
2022-09-04T04:24:14.432Z,5.15
2022-09-04T04:26:56.759Z,4.75
2022-09-04T04:29:48.121Z,4.90
2022-09-04T04:32:26.654Z,4.90
2022-09-04T04:35:08.807Z,5.00
2022-09-04T04:37:53.517Z,5.10
2022-09-04T04:40:32.468Z,5.10
2022-09-04T04:43:06.942Z,5.50
2022-09-04T04:45:52.353Z,4.90
2022-09-04T04:48:51.360Z,4.80
2022-09-04T04:51:40.756Z,5.07
2022-09-04T04:54:27.641Z,5.03
2022-09-04T04:57:05.320Z,5.25
2022-09-04T04:59:41.029Z,5.20
2022-09-04T05:04:48.647Z,4.88
2022-09-04T05:07:30.393Z,4.72
2022-09-04T05:10:09.321Z,4.72
2022-09-04T05:12:55.331Z,5.30
2022-09-04T05:15:30.281Z,4.93
2022-09-04T05:18:05.869Z,5.75
2022-09-04T05:20:43.673Z,6.20
2022-09-04T05:23:28.915Z,4.97
2022-09-04T05:26:27.650Z,5.88
2022-09-04T05:29:07.238Z,5.38
2022-09-04T05:31:43.374Z,5.88
2022-09-04T05:34:21.918Z,5.20
2022-09-04T05:37:04.703Z,5.63
2022-09-04T05:39:45.905Z,4.97
2022-09-04T05:42:51.180Z,5.03
2022-09-04T05:45:25.945Z,5.07
2022-09-04T05:48:17.038Z,5.50
2022-09-04T05:51:14.413Z,5.25
2022-09-04T05:54:02.594Z,5.22
2022-09-04T05:56:55.290Z,5.45
2022-09-04T05:59:46.039Z,4.78
2022-09-04T06:02:38.923Z,5.40
2022-09-04T06:05:21.374Z,4.70
2022-09-04T06:08:02.024Z,5.32
2022-09-04T06:10:44.945Z,5.63
2022-09-04T06:13:51.942Z,5.57
2022-09-04T06:19:24.139Z,5.05
2022-09-04T06:22:03.403Z,5.55
2022-09-04T06:24:49.403Z,5.88
2022-09-04T06:27:46.573Z,5.38
2022-09-04T06:30:16.494Z,5.25
2022-09-04T06:33:13.409Z,5.50
2022-09-04T06:36:17.040Z,5.25
2022-09-04T06:39:00.683Z,5.38
2022-09-04T06:41:44.382Z,5.55
2022-09-04T06:44:25.373Z,6.00
2022-09-04T06:47:02.569Z,5.55
2022-09-04T06:49:39.038Z,5.35
2022-09-04T06:52:21.320Z,5.57
2022-09-04T06:54:59.571Z,5.90
2022-09-04T06:57:49.233Z,5.45
2022-09-04T07:00:20.110Z,5.38
2022-09-04T07:07:13.628Z,5.18
2022-09-04T07:09:47.132Z,5.65
2022-09-04T07:12:47.849Z,5.30
2022-09-04T07:15:39.554Z,5.05
2022-09-04T07:18:20.786Z,5.22
2022-09-04T07:21:02.340Z,5.38
2022-09-04T07:23:45.191Z,5.53
2022-09-04T07:26:28.667Z,5.22
2022-09-04T07:29:25.134Z,5.32
2022-09-04T07:32:03.142Z,5.10
2022-09-04T07:34:44.800Z,5.68
2022-09-04T07:37:25.191Z,5.53
2022-09-04T07:40:09.674Z,5.38
2022-09-04T07:42:47.023Z,5.63
2022-09-04T07:45:29.529Z,5.50
2022-09-04T07:48:12.357Z,4.47
2022-09-04T07:51:03.669Z,4.82
2022-09-04T07:53:51.755Z,4.45
2022-09-04T07:56:31.307Z,4.60
2022-09-04T07:59:32.238Z,4.45
2022-09-04T08:02:20.455Z,4.00
2022-09-04T08:05:16.010Z,3.95
2022-09-04T08:08:03.606Z,4.20
2022-09-04T08:10:35.296Z,3.92
2022-09-04T08:13:33.681Z,3.72
2022-09-04T08:16:07.718Z,4.40
2022-09-04T08:18:54.748Z,3.60
2022-09-04T08:21:29.019Z,4.15
2022-09-04T08:24:17.461Z,3.85
2022-09-04T08:26:54.142Z,3.83
2022-09-04T08:29:48.978Z,3.60
2022-09-04T08:32:40.289Z,3.83
2022-09-04T08:35:26.844Z,3.50
2022-09-04T08:38:16.958Z,3.42
2022-09-04T08:41:26.232Z,3.83
2022-09-04T08:44:40.079Z,3.80
2022-09-04T08:47:46.090Z,3.70
2022-09-04T08:50:27.699Z,3.60
2022-09-04T08:53:27.157Z,3.80
2022-09-04T08:56:10.228Z,3.80
2022-09-04T08:59:10.462Z,3.70
2022-09-04T09:02:12.846Z,3.90
2022-09-04T09:05:24.042Z,4.00
2022-09-04T09:08:08.123Z,3.45
2022-09-04T09:10:55.053Z,3.72
2022-09-04T09:13:59.874Z,3.50
2022-09-04T09:16:44.135Z,3.83
2022-09-04T09:19:23.408Z,3.60
2022-09-04T09:22:10.573Z,4.13
2022-09-04T09:25:07.281Z,3.47
2022-09-04T09:28:09.956Z,4.00
2022-09-04T09:30:55.191Z,3.67
2022-09-04T09:34:05.397Z,4.05
2022-09-04T09:37:08.764Z,3.80
2022-09-04T09:40:06.860Z,3.78
2022-09-04T09:43:09.692Z,3.50
2022-09-04T09:46:12.735Z,3.60
2022-09-04T09:49:04.629Z,3.55
2022-09-04T09:52:15.715Z,3.53
2022-09-04T09:55:18.240Z,3.65
2022-09-04T09:58:35.789Z,4.18
2022-09-04T10:01:15.060Z,3.55
2022-09-04T10:04:11.944Z,3.92
2022-09-04T10:07:20.096Z,3.60
2022-09-04T10:10:25.365Z,3.95
2022-09-04T10:13:20.600Z,4.10
2022-09-04T10:16:17.474Z,3.97
2022-09-04T10:19:12.894Z,4.25
2022-09-04T10:22:15.355Z,4.25
2022-09-04T10:25:24.489Z,4.40
2022-09-04T10:28:16.479Z,4.25
2022-09-04T10:31:28.424Z,4.53
2022-09-04T10:34:11.687Z,3.70
2022-09-04T10:36:50.966Z,4.20
2022-09-04T10:39:54.440Z,4.13
2022-09-04T10:42:36.936Z,4.07
2022-09-04T10:45:22.593Z,3.80
2022-09-04T10:48:35.912Z,3.88
2022-09-04T10:51:28.437Z,3.78
2022-09-04T10:54:20.173Z,3.80
2022-09-04T10:56:58.133Z,3.67
2022-09-04T10:59:45.758Z,3.25
2022-09-04T11:03:03.444Z,3.35
2022-09-04T11:06:08.876Z,3.45
2022-09-04T11:08:51.613Z,3.10
2022-09-04T11:11:41.585Z,3.17
2022-09-04T11:14:44.594Z,3.00
2022-09-04T11:17:45.256Z,3.00
2022-09-04T11:20:57.315Z,3.20
2022-09-04T11:24:30.305Z,3.10
2022-09-04T11:27:29.730Z,3.63
2022-09-04T11:30:12.208Z,3.30
2022-09-04T11:33:02.337Z,3.17
2022-09-04T11:35:51.066Z,4.10
2022-09-04T11:38:43.888Z,3.80
2022-09-04T11:41:38.120Z,3.35
2022-09-04T11:44:41.850Z,3.60
2022-09-04T11:47:36.652Z,3.60
2022-09-04T11:50:25.415Z,3.55
2022-09-04T11:53:16.174Z,3.40
2022-09-04T11:56:08.135Z,3.35
2022-09-04T11:59:09.403Z,3.38
2022-09-04T12:02:03.039Z,3.03
2022-09-04T12:04:44.223Z,3.33
2022-09-04T12:07:40.699Z,3.10
2022-09-04T12:10:32.668Z,3.17
2022-09-04T12:13:40.267Z,3.20
2022-09-04T12:16:44.600Z,3.00
2022-09-04T12:19:43.207Z,3.00
2022-09-04T12:22:42.129Z,3.28
2022-09-04T12:25:46.305Z,4.25
2022-09-04T12:28:48.166Z,3.80
2022-09-04T12:31:51.457Z,3.42
2022-09-04T12:34:42.726Z,2.92
2022-09-04T12:37:29.120Z,2.90
2022-09-04T12:40:32.462Z,3.33
2022-09-04T12:43:21.561Z,2.72
2022-09-04T12:46:04.448Z,3.15
2022-09-04T12:48:42.218Z,3.40
2022-09-04T12:51:16.882Z,3.58
2022-09-04T12:54:04.932Z,3.67
2022-09-04T12:56:49.271Z,3.70
2022-09-04T12:59:38.353Z,3.78
2022-09-04T13:02:22.377Z,3.85
2022-09-04T13:05:00.470Z,3.80
2022-09-04T13:07:42.849Z,3.33
2022-09-04T13:10:23.748Z,3.40
2022-09-04T13:13:05.200Z,3.50
2022-09-04T13:15:45.180Z,2.83
2022-09-04T13:18:26.574Z,3.50
2022-09-04T13:21:05.933Z,3.35
2022-09-04T13:23:52.421Z,3.40
2022-09-04T13:26:36.601Z,3.20
2022-09-04T13:29:17.048Z,2.75
2022-09-04T13:32:00.780Z,2.92
2022-09-04T13:34:42.827Z,2.78
2022-09-04T13:37:21.358Z,3.28
2022-09-04T13:40:15.399Z,3.00
2022-09-04T13:43:20.282Z,2.88
2022-09-04T13:45:52.074Z,2.63
2022-09-04T13:48:32.602Z,2.70
2022-09-04T13:51:11.367Z,2.80
2022-09-04T13:54:04.182Z,3.25
2022-09-04T13:56:39.277Z,2.85
2022-09-04T13:59:15.006Z,2.63
2022-09-04T14:01:48.020Z,2.55
2022-09-04T14:04:23.871Z,2.80
2022-09-04T14:06:52.413Z,2.50
2022-09-04T14:09:21.680Z,2.47
2022-09-04T14:12:21.642Z,2.08
2022-09-04T14:15:49.495Z,2.28
2022-09-04T14:18:31.164Z,2.28
2022-09-04T14:21:05.567Z,2.00
2022-09-04T14:23:42.660Z,3.03
2022-09-04T14:26:21.341Z,2.75
2022-09-04T14:28:59.783Z,2.40
2022-09-04T14:31:35.496Z,2.40
2022-09-04T14:34:17.651Z,2.30
2022-09-04T14:36:57.289Z,2.25
2022-09-04T14:39:30.979Z,2.35
2022-09-04T14:42:17.740Z,2.25
2022-09-04T14:45:02.262Z,2.38
2022-09-04T14:47:39.919Z,2.10
2022-09-04T14:50:10.049Z,2.00
2022-09-04T14:52:42.908Z,2.13
2022-09-04T14:55:17.482Z,2.10
2022-09-04T14:57:51.681Z,2.00
2022-09-04T15:00:22.783Z,2.15
2022-09-04T15:03:00.656Z,2.40
2022-09-04T15:05:34.340Z,2.10
2022-09-04T15:08:05.663Z,2.15
2022-09-04T15:10:47.657Z,2.05
2022-09-04T15:13:48.007Z,2.00
2022-09-04T15:16:24.718Z,2.00
2022-09-04T15:19:05.334Z,2.40
2022-09-04T15:21:41.185Z,1.90
2022-09-04T15:24:26.711Z,1.83
2022-09-04T15:27:01.661Z,1.85
2022-09-04T15:29:38.487Z,1.90
2022-09-04T15:32:14.169Z,1.90
2022-09-04T15:34:42.732Z,2.13
2022-09-04T15:37:17.293Z,1.98
2022-09-04T15:39:55.244Z,2.00
2022-09-04T15:42:41.416Z,2.20
2022-09-04T15:45:18.330Z,1.88
2022-09-04T15:48:11.356Z,2.55
2022-09-04T15:50:52.123Z,2.70
2022-09-04T15:53:27.665Z,2.97
2022-09-04T15:56:07.128Z,2.95
2022-09-04T15:58:46.527Z,2.70
2022-09-04T16:01:26.130Z,2.70
2022-09-04T16:04:07.400Z,2.63
2022-09-04T16:06:43.685Z,3.20
2022-09-04T16:09:21.763Z,2.88
2022-09-04T16:12:00.814Z,2.95
2022-09-04T16:14:33.752Z,2.65
2022-09-04T16:17:08.045Z,2.80
2022-09-04T16:19:45.428Z,2.70
2022-09-04T16:22:26.828Z,2.92
2022-09-04T16:25:07.125Z,2.55
2022-09-04T16:27:43.625Z,2.75
2022-09-04T16:30:30.270Z,2.67
2022-09-04T16:32:59.293Z,2.70
2022-09-04T16:35:32.048Z,2.70
2022-09-04T16:38:07.137Z,2.78
2022-09-04T16:40:41.376Z,3.08
2022-09-04T16:43:19.785Z,2.70
2022-09-04T16:45:51.602Z,2.80
2022-09-04T16:48:33.866Z,2.88
2022-09-04T16:51:40.441Z,3.17
2022-09-04T16:54:05.694Z,2.83
2022-09-04T16:56:38.738Z,2.83
2022-09-04T16:59:17.832Z,3.40
2022-09-04T17:01:50.812Z,3.47
2022-09-04T17:04:42.772Z,3.65
2022-09-04T17:07:19.466Z,3.47
2022-09-04T17:09:57.786Z,3.30
2022-09-04T17:12:38.991Z,3.10
2022-09-04T17:15:18.739Z,3.15
2022-09-04T17:17:48.575Z,3.30
2022-09-04T17:20:50.281Z,3.60
2022-09-04T17:28:55.423Z,3.10
2022-09-04T17:31:58.956Z,3.30
2022-09-04T17:40:27.751Z,3.80
2022-09-04T17:40:43.405Z,3.40
2022-09-04T17:41:36.418Z,3.30
2022-09-04T17:44:02.090Z,3.63
2022-09-04T17:46:36.809Z,3.58
2022-09-04T17:49:17.714Z,3.35
2022-09-04T17:51:52.348Z,3.22
2022-09-04T17:54:29.286Z,3.20
2022-09-04T17:57:02.775Z,3.13
2022-09-04T17:59:45.425Z,3.70
2022-09-04T18:02:21.966Z,3.50
2022-09-04T18:04:57.628Z,3.17
2022-09-04T18:08:07.570Z,3.45
2022-09-04T18:10:28.709Z,3.83
2022-09-04T18:13:30.396Z,3.42
2022-09-04T18:16:07.780Z,3.40
2022-09-04T18:18:40.343Z,3.55
2022-09-04T18:21:17.075Z,3.90
2022-09-04T18:23:54.987Z,3.50
2022-09-04T18:26:39.961Z,3.30
2022-09-04T18:31:48.252Z,3.42
2022-09-04T18:37:07.474Z,3.67
2022-09-04T18:37:19.828Z,3.60
2022-09-04T18:38:19.760Z,3.55
2022-09-04T18:42:09.896Z,3.70
2022-09-04T18:50:22.112Z,3.83
2022-09-04T18:50:32.528Z,4.03
2022-09-04T18:50:52.247Z,3.90
2022-09-04T18:52:23.450Z,3.72
2022-09-04T18:55:11.820Z,3.95
2022-09-04T18:57:50.120Z,4.07
2022-09-04T19:00:40.273Z,4.00
2022-09-04T19:03:15.167Z,4.47
2022-09-04T19:05:49.769Z,4.20
2022-09-04T19:08:22.143Z,4.40
2022-09-04T19:10:55.180Z,3.97
2022-09-04T19:13:29.005Z,3.95
2022-09-04T19:16:03.387Z,4.00
2022-09-04T19:18:52.528Z,4.18
2022-09-04T19:21:28.645Z,3.85
2022-09-04T19:26:40.435Z,3.53
2022-09-04T19:29:15.114Z,3.58
2022-09-04T19:31:50.282Z,3.90
2022-09-04T19:34:28.850Z,3.75
2022-09-04T19:37:44.762Z,3.88
2022-09-04T19:45:59.684Z,3.85
2022-09-04T19:46:06.570Z,3.78
2022-09-04T19:46:26.394Z,4.43
2022-09-04T19:50:26.054Z,4.05
2022-09-04T19:53:30.629Z,4.10
2022-09-04T19:54:59.935Z,4.13
2022-09-04T19:57:46.208Z,4.13
2022-09-04T20:00:43.944Z,4.15
2022-09-04T20:03:30.412Z,4.10
2022-09-04T20:06:20.151Z,3.92
2022-09-04T20:08:59.792Z,4.60
2022-09-04T20:11:35.849Z,4.53
2022-09-04T20:14:14.321Z,4.50
2022-09-04T20:16:58.152Z,3.90
2022-09-04T20:19:34.766Z,4.10
2022-09-04T20:22:07.581Z,4.50
2022-09-04T20:25:01.884Z,4.05
2022-09-04T20:27:36.439Z,4.00
2022-09-04T20:30:12.457Z,4.20
2022-09-04T20:32:55.958Z,4.25
2022-09-04T20:35:35.011Z,4.07
2022-09-04T20:38:23.113Z,4.38
2022-09-04T20:40:59.632Z,4.20
2022-09-04T20:43:35.071Z,4.40
2022-09-04T20:49:35.215Z,4.00
2022-09-04T20:52:53.306Z,4.05
2022-09-04T20:52:57.774Z,4.13
2022-09-04T20:55:33.981Z,4.53
2022-09-04T21:03:11.417Z,4.80
2022-09-04T21:03:21.628Z,4.35
2022-09-04T21:04:23.827Z,4.28
2022-09-04T21:07:19.670Z,4.93
2022-09-04T21:10:00.484Z,4.90
2022-09-04T21:12:37.904Z,4.60
2022-09-04T21:15:15.695Z,4.10
2022-09-04T21:18:16.403Z,4.40
2022-09-04T21:21:28.958Z,5.15
2022-09-04T21:24:21.990Z,4.97
2022-09-04T21:27:19.486Z,4.55
2022-09-04T21:30:06.735Z,4.80
2022-09-04T21:33:26.622Z,4.78
2022-09-04T21:36:26.670Z,4.15
2022-09-04T21:39:26.982Z,4.75
2022-09-04T21:42:17.195Z,4.40
2022-09-04T21:45:10.593Z,4.28
2022-09-04T21:47:54.505Z,4.32
2022-09-04T21:50:42.892Z,4.35
2022-09-04T21:53:52.790Z,4.25
2022-09-04T22:02:27.318Z,4.10
2022-09-04T22:02:43.253Z,4.30
2022-09-04T22:03:22.404Z,4.68
2022-09-04T22:06:07.746Z,4.65
2022-09-04T22:13:30.802Z,4.07
2022-09-04T22:13:41.411Z,4.47
2022-09-04T22:14:55.392Z,3.83
2022-09-04T22:18:09.606Z,4.30
2022-09-04T22:21:14.384Z,4.40
2022-09-04T22:24:18.210Z,4.53
2022-09-04T22:27:21.122Z,4.22
2022-09-04T22:29:59.317Z,4.25
2022-09-04T22:33:02.525Z,3.88
2022-09-04T22:36:18.846Z,3.83
2022-09-04T22:39:08.415Z,3.50
2022-09-04T22:41:54.989Z,3.85
2022-09-04T22:44:37.868Z,3.80
2022-09-04T22:47:41.457Z,3.65
2022-09-04T22:50:49.369Z,4.00
2022-09-04T22:53:48.760Z,3.92
2022-09-04T22:56:29.206Z,4.20
2022-09-04T22:59:26.700Z,3.90
2022-09-04T23:02:20.716Z,4.10
2022-09-04T23:05:14.177Z,3.90
2022-09-04T23:11:35.924Z,4.10
2022-09-04T23:14:02.221Z,4.47
2022-09-04T23:14:20.188Z,3.90
2022-09-04T23:17:19.375Z,4.07
2022-09-04T23:26:33.635Z,3.90
2022-09-04T23:26:46.607Z,5.72
2022-09-04T23:27:00.218Z,3.67
2022-09-04T23:29:47.350Z,3.47
2022-09-04T23:32:36.868Z,4.47
2022-09-04T23:35:23.511Z,4.22
2022-09-04T23:38:37.699Z,3.78
2022-09-04T23:41:14.058Z,3.90
2022-09-04T23:44:39.981Z,4.40
2022-09-04T23:47:49.601Z,4.43
2022-09-04T23:50:32.934Z,4.40
2022-09-04T23:53:12.823Z,3.97
2022-09-04T23:55:53.866Z,3.83
2022-09-04T23:58:58.779Z,3.95
